Time,TemperatureF,DewpointF,PressureIn,WindDirection,WindDirectionDegrees,WindSpeedMPH,WindSpeedGustMPH,Humidity,HourlyPrecipIn,Conditions,Clouds,dailyrainin,SoftwareType,DateUTC
2013-03-30 00:00:00,37.4,28.0,30.11,NNW,333,0.0,0.0,70,0.00,,,0.00,oem by Ross Wheeler,2013-03-30 04:00:00,
2013-03-30 00:05:00,37.4,28.0,30.11,NNW,333,0.0,0.0,70,0.00,,,0.00,oem by Ross Wheeler,2013-03-30 04:05:00,
2013-03-30 00:10:00,37.2,29.0,30.11,NNW,333,0.0,0.0,71,0.00,,,0.00,oem by Ross Wheeler,2013-03-30 04:10:00,
2013-03-30 00:15:00,37.2,29.0,30.11,NNW,333,0.0,0.0,71,0.00,,,0.00,oem by Ross Wheeler,2013-03-30 04:15:00,
2013-03-30 00:25:00,37.0,28.0,30.11,NNW,333,0.0,0.0,71,0.00,,,0.00,oem by Ross Wheeler,2013-03-30 04:25:00,
2013-03-30 00:30:00,37.0,28.0,30.11,NNW,333,0.0,0.0,71,0.00,,,0.00,oem by Ross Wheeler,2013-03-30 04:30:00,
2013-03-30 00:40:00,37.0,29.0,30.11,NNW,333,0.0,0.0,72,0.00,,,0.00,oem by Ross Wheeler,2013-03-30 04:40:00,
2013-03-30 00:45:00,37.2,29.0,30.11,NNW,333,2.0,0.0,71,0.00,,,0.00,oem by Ross Wheeler,2013-03-30 04:45:00,
2013-03-30 00:55:00,37.5,29.0,30.11,NNW,333,0.0,0.0,71,0.00,,,0.00,oem by Ross Wheeler,2013-03-30 04:55:00,
2013-03-30 01:00:00,37.5,29.0,30.11,NNW,333,0.0,0.0,71,0.00,,,0.00,oem by Ross Wheeler,2013-03-30 05:00:00,
2013-03-30 01:05:00,37.7,29.0,30.11,NNW,333,0.0,0.0,72,0.00,,,0.00,oem by Ross Wheeler,2013-03-30 05:05:00,
2013-03-30 01:15:00,37.5,29.0,30.11,NNW,333,0.0,0.0,72,0.00,,,0.00,oem by Ross Wheeler,2013-03-30 05:15:00,
2013-03-30 01:25:00,38.4,29.0,30.11,WNW,295,1.0,0.0,69,0.00,,,0.00,oem by Ross Wheeler,2013-03-30 05:25:00,
2013-03-30 01:30:00,39.0,29.0,30.11,West,267,0.0,0.0,68,0.00,,,0.00,oem by Ross Wheeler,2013-03-30 05:30:00,
2013-03-30 01:40:00,38.7,29.0,30.11,West,267,0.0,0.0,68,0.00,,,0.00,oem by Ross Wheeler,2013-03-30 05:40:00,
2013-03-30 01:45:00,38.4,29.0,30.11,West,267,0.0,0.0,68,0.00,,,0.00,oem by Ross Wheeler,2013-03-30 05:45:00,
2013-03-30 01:55:00,38.0,30.0,30.11,West,267,2.0,0.0,72,0.00,,,0.00,oem by Ross Wheeler,2013-03-30 05:55:00,
2013-03-30 02:00:00,38.3,30.0,30.11,West,267,0.0,0.0,72,0.00,,,0.00,oem by Ross Wheeler,2013-03-30 06:00:00,
2013-03-30 02:10:00,39.0,30.0,30.11,West,267,1.0,0.0,71,0.00,,,0.00,oem by Ross Wheeler,2013-03-30 06:10:00,
2013-03-30 02:15:00,39.0,30.0,30.11,West,267,0.0,0.0,70,0.00,,,0.00,oem by Ross Wheeler,2013-03-30 06:15:00,
2013-03-30 02:25:00,38.5,30.0,30.11,West,267,0.0,0.0,71,0.00,,,0.00,oem by Ross Wheeler,2013-03-30 06:25:00,
2013-03-30 02:30:00,38.1,30.0,30.11,West,267,0.0,0.0,72,0.00,,,0.00,oem by Ross Wheeler,2013-03-30 06:30:00,
2013-03-30 02:40:00,37.2,30.0,30.11,West,267,0.0,0.0,74,0.00,,,0.00,oem by Ross Wheeler,2013-03-30 06:40:00,
2013-03-30 02:45:00,37.0,29.0,30.11,West,267,0.0,0.0,73,0.00,,,0.00,oem by Ross Wheeler,2013-03-30 06:45:00,
2013-03-30 02:55:00,36.2,29.0,30.11,West,267,0.0,0.0,75,0.00,,,0.00,oem by Ross Wheeler,2013-03-30 06:55:00,
2013-03-30 03:00:00,36.0,29.0,30.11,West,267,0.0,0.0,76,0.00,,,0.00,oem by Ross Wheeler,2013-03-30 07:00:00,
2013-03-30 03:10:00,35.4,29.0,30.11,West,267,0.0,0.0,77,0.00,,,0.00,oem by Ross Wheeler,2013-03-30 07:10:00,
2013-03-30 03:15:00,35.1,29.0,30.11,West,267,0.0,0.0,77,0.00,,,0.00,oem by Ross Wheeler,2013-03-30 07:15:00,
2013-03-30 03:25:00,34.7,29.0,30.11,West,267,0.0,0.0,79,0.00,,,0.00,oem by Ross Wheeler,2013-03-30 07:25:00,
2013-03-30 03:30:00,35.4,30.0,30.11,West,267,1.0,0.0,80,0.00,,,0.00,oem by Ross Wheeler,2013-03-30 07:30:00,
2013-03-30 03:40:00,37.1,30.0,30.10,West,267,0.0,0.0,76,0.00,,,0.00,oem by Ross Wheeler,2013-03-30 07:40:00,
2013-03-30 03:45:00,37.5,30.0,30.10,West,267,0.0,0.0,75,0.00,,,0.00,oem by Ross Wheeler,2013-03-30 07:45:00,
2013-03-30 03:55:00,38.1,31.0,30.10,WNW,302,1.0,0.0,74,0.00,,,0.00,oem by Ross Wheeler,2013-03-30 07:55:00,
2013-03-30 04:00:00,38.3,30.0,30.10,WNW,296,2.0,0.0,73,0.00,,,0.00,oem by Ross Wheeler,2013-03-30 08:00:00,
2013-03-30 04:10:00,38.4,30.0,30.10,WNW,301,1.0,0.0,72,0.00,,,0.00,oem by Ross Wheeler,2013-03-30 08:10:00,
2013-03-30 04:15:00,38.4,30.0,30.10,WNW,292,5.0,0.0,72,0.00,,,0.00,oem by Ross Wheeler,2013-03-30 08:15:00,
2013-03-30 04:25:00,38.5,30.0,30.10,WNW,292,3.0,0.0,71,0.00,,,0.00,oem by Ross Wheeler,2013-03-30 08:25:00,
2013-03-30 04:30:00,38.5,30.0,30.10,WNW,294,4.0,0.0,71,0.00,,,0.00,oem by Ross Wheeler,2013-03-30 08:30:00,
2013-03-30 04:40:00,38.8,30.0,30.10,WNW,291,2.0,0.0,70,0.00,,,0.00,oem by Ross Wheeler,2013-03-30 08:40:00,
2013-03-30 04:45:00,39.0,30.0,30.10,WNW,303,2.0,0.0,69,0.00,,,0.00,oem by Ross Wheeler,2013-03-30 08:45:00,
2013-03-30 04:55:00,38.7,30.0,30.10,WNW,284,0.0,0.0,70,0.00,,,0.00,oem by Ross Wheeler,2013-03-30 08:55:00,
2013-03-30 05:00:00,38.5,29.0,30.10,WNW,284,0.0,0.0,70,0.00,,,0.00,oem by Ross Wheeler,2013-03-30 09:00:00,
2013-03-30 05:10:00,38.5,29.0,30.10,WNW,284,1.0,0.0,70,0.00,,,0.00,oem by Ross Wheeler,2013-03-30 09:10:00,
2013-03-30 05:15:00,38.4,29.0,30.10,NW,305,0.0,0.0,70,0.00,,,0.00,oem by Ross Wheeler,2013-03-30 09:15:00,
2013-03-30 05:25:00,38.3,29.0,30.10,NW,305,0.0,0.0,70,0.00,,,0.00,oem by Ross Wheeler,2013-03-30 09:25:00,
2013-03-30 05:30:00,38.0,29.0,30.11,NW,305,0.0,0.0,70,0.00,,,0.00,oem by Ross Wheeler,2013-03-30 09:30:00,
2013-03-30 05:40:00,37.7,29.0,30.11,NW,305,0.0,0.0,70,0.00,,,0.00,oem by Ross Wheeler,2013-03-30 09:40:00,
2013-03-30 05:45:00,37.5,29.0,30.11,NW,305,0.0,0.0,71,0.00,,,0.00,oem by Ross Wheeler,2013-03-30 09:45:00,
2013-03-30 05:55:00,37.4,29.0,30.11,NW,305,0.0,0.0,71,0.00,,,0.00,oem by Ross Wheeler,2013-03-30 09:55:00,
2013-03-30 06:00:00,37.1,28.0,30.11,NW,305,0.0,0.0,71,0.00,,,0.00,oem by Ross Wheeler,2013-03-30 10:00:00,
2013-03-30 06:10:00,36.4,28.0,30.11,NW,305,0.0,0.0,72,0.00,,,0.00,oem by Ross Wheeler,2013-03-30 10:10:00,
2013-03-30 06:15:00,36.0,28.0,30.11,NW,305,0.0,0.0,72,0.00,,,0.00,oem by Ross Wheeler,2013-03-30 10:15:00,
2013-03-30 06:25:00,35.1,28.0,30.11,NW,305,0.0,0.0,74,0.00,,,0.00,oem by Ross Wheeler,2013-03-30 10:25:00,
2013-03-30 06:30:00,34.7,28.0,30.12,NW,305,0.0,0.0,75,0.00,,,0.00,oem by Ross Wheeler,2013-03-30 10:30:00,
2013-03-30 06:40:00,34.1,27.0,30.12,NW,305,0.0,0.0,76,0.00,,,0.00,oem by Ross Wheeler,2013-03-30 10:40:00,
2013-03-30 06:45:00,33.8,27.0,30.12,NW,305,0.0,0.0,77,0.00,,,0.00,oem by Ross Wheeler,2013-03-30 10:45:00,
2013-03-30 06:55:00,33.2,27.0,30.12,NW,305,0.0,0.0,79,0.00,,,0.00,oem by Ross Wheeler,2013-03-30 10:55:00,
2013-03-30 07:00:00,33.5,28.0,30.13,WNW,294,2.0,0.0,81,0.00,,,0.00,oem by Ross Wheeler,2013-03-30 11:00:00,
2013-03-30 07:10:00,36.1,29.0,30.13,West,278,0.0,0.0,75,0.00,,,0.00,oem by Ross Wheeler,2013-03-30 11:10:00,
2013-03-30 07:15:00,36.5,29.0,30.13,West,278,1.0,0.0,74,0.00,,,0.00,oem by Ross Wheeler,2013-03-30 11:15:00,
2013-03-30 07:25:00,37.2,29.0,30.13,West,278,2.0,0.0,72,0.00,,,0.00,oem by Ross Wheeler,2013-03-30 11:25:00,
2013-03-30 07:30:00,37.7,29.0,30.13,West,278,0.0,0.0,71,0.00,,,0.00,oem by Ross Wheeler,2013-03-30 11:30:00,
2013-03-30 07:40:00,38.4,29.0,30.13,West,265,1.0,0.0,70,0.00,,,0.00,oem by Ross Wheeler,2013-03-30 11:40:00,
2013-03-30 07:45:00,38.7,29.0,30.14,WNW,295,0.0,0.0,69,0.00,,,0.00,oem by Ross Wheeler,2013-03-30 11:45:00,
2013-03-30 07:55:00,39.4,30.0,30.14,WNW,294,2.0,0.0,69,0.00,,,0.00,oem by Ross Wheeler,2013-03-30 11:55:00,
2013-03-30 08:00:00,40.0,31.0,30.14,WNW,294,0.0,0.0,69,0.00,,,0.00,oem by Ross Wheeler,2013-03-30 12:00:00,
2013-03-30 08:10:00,40.8,31.0,30.14,West,271,0.0,0.0,67,0.00,,,0.00,oem by Ross Wheeler,2013-03-30 12:10:00,
2013-03-30 08:15:00,41.4,31.0,30.14,NNW,343,0.0,0.0,66,0.00,,,0.00,oem by Ross Wheeler,2013-03-30 12:15:00,
2013-03-30 08:25:00,42.3,31.0,30.14,NNW,339,1.0,0.0,64,0.00,,,0.00,oem by Ross Wheeler,2013-03-30 12:25:00,
2013-03-30 08:30:00,42.5,31.0,30.14,WNW,285,1.0,0.0,63,0.00,,,0.00,oem by Ross Wheeler,2013-03-30 12:30:00,
2013-03-30 08:40:00,43.0,31.0,30.14,WNW,298,1.0,0.0,62,0.00,,,0.00,oem by Ross Wheeler,2013-03-30 12:40:00,
2013-03-30 08:45:00,43.1,31.0,30.15,NNW,342,0.0,0.0,62,0.00,,,0.00,oem by Ross Wheeler,2013-03-30 12:45:00,
2013-03-30 08:55:00,43.8,31.0,30.15,West,267,0.0,0.0,62,0.00,,,0.00,oem by Ross Wheeler,2013-03-30 12:55:00,
2013-03-30 09:00:00,44.1,31.0,30.15,WNW,303,0.0,0.0,60,0.00,,,0.00,oem by Ross Wheeler,2013-03-30 13:00:00,
2013-03-30 09:10:00,45.2,31.0,30.15,NNW,329,3.0,0.0,58,0.00,,,0.00,oem by Ross Wheeler,2013-03-30 13:10:00,
2013-03-30 09:15:00,45.4,31.0,30.15,NNW,333,3.0,0.0,57,0.00,,,0.00,oem by Ross Wheeler,2013-03-30 13:15:00,
2013-03-30 09:25:00,46.2,31.0,30.15,WNW,292,4.0,0.0,55,0.00,,,0.00,oem by Ross Wheeler,2013-03-30 13:25:00,
2013-03-30 09:30:00,46.6,31.0,30.15,NW,311,0.0,0.0,56,0.00,,,0.00,oem by Ross Wheeler,2013-03-30 13:30:00,
2013-03-30 09:40:00,47.4,30.0,30.15,NNW,333,3.0,0.0,52,0.00,,,0.00,oem by Ross Wheeler,2013-03-30 13:40:00,
2013-03-30 09:45:00,47.2,30.0,30.15,NW,320,1.0,0.0,52,0.00,,,0.00,oem by Ross Wheeler,2013-03-30 13:45:00,
2013-03-30 09:55:00,47.7,31.0,30.15,NNW,344,3.0,0.0,52,0.00,,,0.00,oem by Ross Wheeler,2013-03-30 13:55:00,
2013-03-30 10:00:00,47.8,30.0,30.15,NNW,333,5.0,0.0,51,0.00,,,0.00,oem by Ross Wheeler,2013-03-30 14:00:00,
2013-03-30 10:10:00,48.3,30.0,30.15,NNW,327,2.0,0.0,50,0.00,,,0.00,oem by Ross Wheeler,2013-03-30 14:10:00,
2013-03-30 10:15:00,48.8,30.0,30.14,NW,315,3.0,0.0,49,0.00,,,0.00,oem by Ross Wheeler,2013-03-30 14:15:00,
2013-03-30 10:25:00,49.9,30.0,30.14,NW,322,0.0,0.0,47,0.00,,,0.00,oem by Ross Wheeler,2013-03-30 14:25:00,
2013-03-30 10:30:00,50.6,30.0,30.14,West,271,2.0,0.0,46,0.00,,,0.00,oem by Ross Wheeler,2013-03-30 14:30:00,
2013-03-30 10:40:00,50.9,29.0,30.14,NNW,339,0.0,0.0,43,0.00,,,0.00,oem by Ross Wheeler,2013-03-30 14:40:00,
2013-03-30 10:45:00,51.4,29.0,30.14,North,356,5.0,0.0,42,0.00,,,0.00,oem by Ross Wheeler,2013-03-30 14:45:00,
2013-03-30 10:55:00,51.4,26.0,30.14,WNW,295,3.0,0.0,38,0.00,,,0.00,oem by Ross Wheeler,2013-03-30 14:55:00,
2013-03-30 11:00:00,51.5,26.0,30.14,WNW,294,2.0,0.0,37,0.00,,,0.00,oem by Ross Wheeler,2013-03-30 15:00:00,
2013-03-30 11:10:00,52.1,25.0,30.14,NNW,330,0.0,0.0,35,0.00,,,0.00,oem by Ross Wheeler,2013-03-30 15:10:00,
2013-03-30 11:15:00,52.1,23.0,30.13,NW,318,2.0,0.0,32,0.00,,,0.00,oem by Ross Wheeler,2013-03-30 15:15:00,
2013-03-30 11:25:00,52.7,25.0,30.13,NNW,329,2.0,0.0,34,0.00,,,0.00,oem by Ross Wheeler,2013-03-30 15:25:00,
2013-03-30 11:30:00,53.1,24.0,30.13,NW,311,3.0,0.0,32,0.00,,,0.00,oem by Ross Wheeler,2013-03-30 15:30:00,
2013-03-30 11:40:00,53.4,25.0,30.13,WNW,294,5.0,0.0,33,0.00,,,0.00,oem by Ross Wheeler,2013-03-30 15:40:00,
2013-03-30 11:45:00,53.1,24.0,30.13,WSW,255,2.0,0.0,32,0.00,,,0.00,oem by Ross Wheeler,2013-03-30 15:45:00,
2013-03-30 11:55:00,53.6,25.0,30.13,WNW,302,4.0,0.0,33,0.00,,,0.00,oem by Ross Wheeler,2013-03-30 15:55:00,
2013-03-30 12:00:00,54.3,26.0,30.12,NNW,344,5.0,0.0,33,0.00,,,0.00,oem by Ross Wheeler,2013-03-30 16:00:00,
2013-03-30 12:10:00,54.8,25.0,30.12,WNW,291,4.0,0.0,31,0.00,,,0.00,oem by Ross Wheeler,2013-03-30 16:10:00,
2013-03-30 12:15:00,54.8,25.0,30.12,WNW,292,3.0,0.0,31,0.00,,,0.00,oem by Ross Wheeler,2013-03-30 16:15:00,
2013-03-30 12:25:00,55.4,23.0,30.12,NW,326,1.0,0.0,29,0.00,,,0.00,oem by Ross Wheeler,2013-03-30 16:25:00,
2013-03-30 12:30:00,55.7,25.0,30.11,WNW,298,6.0,0.0,30,0.00,,,0.00,oem by Ross Wheeler,2013-03-30 16:30:00,
2013-03-30 12:40:00,56.1,22.0,30.11,WNW,291,1.0,0.0,27,0.00,,,0.00,oem by Ross Wheeler,2013-03-30 16:40:00,
2013-03-30 12:45:00,56.4,24.0,30.10,WNW,298,3.0,0.0,29,0.00,,,0.00,oem by Ross Wheeler,2013-03-30 16:45:00,
2013-03-30 12:55:00,56.5,24.0,30.10,NNW,337,6.0,0.0,28,0.00,,,0.00,oem by Ross Wheeler,2013-03-30 16:55:00,
2013-03-30 13:00:00,56.5,23.0,30.10,WNW,295,1.0,0.0,27,0.00,,,0.00,oem by Ross Wheeler,2013-03-30 17:00:00,
2013-03-30 13:10:00,56.7,23.0,30.10,WNW,282,1.0,0.0,27,0.00,,,0.00,oem by Ross Wheeler,2013-03-30 17:10:00,
2013-03-30 13:15:00,57.3,22.0,30.09,NNW,340,3.0,0.0,25,0.00,,,0.00,oem by Ross Wheeler,2013-03-30 17:15:00,
2013-03-30 13:25:00,57.6,23.0,30.09,WNW,291,5.0,0.0,26,0.00,,,0.00,oem by Ross Wheeler,2013-03-30 17:25:00,
2013-03-30 13:30:00,57.8,23.0,30.08,North,10,3.0,0.0,26,0.00,,,0.00,oem by Ross Wheeler,2013-03-30 17:30:00,
2013-03-30 13:40:00,57.6,23.0,30.08,NW,315,5.0,0.0,26,0.00,,,0.00,oem by Ross Wheeler,2013-03-30 17:40:00,
2013-03-30 13:45:00,57.6,21.0,30.08,NW,325,2.0,0.0,24,0.00,,,0.00,oem by Ross Wheeler,2013-03-30 17:45:00,
2013-03-30 13:55:00,56.5,21.0,30.08,NNW,333,6.0,0.0,25,0.00,,,0.00,oem by Ross Wheeler,2013-03-30 17:55:00,
2013-03-30 14:00:00,56.7,21.0,30.07,WNW,289,2.0,0.0,25,0.00,,,0.00,oem by Ross Wheeler,2013-03-30 18:00:00,
2013-03-30 14:10:00,57.9,23.0,30.07,NW,315,3.0,0.0,26,0.00,,,0.00,oem by Ross Wheeler,2013-03-30 18:10:00,
2013-03-30 14:15:00,58.1,23.0,30.06,WSW,255,2.0,0.0,26,0.00,,,0.00,oem by Ross Wheeler,2013-03-30 18:15:00,
2013-03-30 14:25:00,58.4,23.0,30.06,WNW,301,5.0,0.0,25,0.00,,,0.00,oem by Ross Wheeler,2013-03-30 18:25:00,
2013-03-30 14:30:00,58.8,22.0,30.06,NNW,343,5.0,0.0,24,0.00,,,0.00,oem by Ross Wheeler,2013-03-30 18:30:00,
2013-03-30 14:40:00,58.4,22.0,30.06,WNW,299,6.0,0.0,24,0.00,,,0.00,oem by Ross Wheeler,2013-03-30 18:40:00,
2013-03-30 14:45:00,57.2,22.0,30.06,NW,322,3.0,0.0,25,0.00,,,0.00,oem by Ross Wheeler,2013-03-30 18:45:00,
2013-03-30 14:55:00,57.8,21.0,30.06,NNW,343,2.0,0.0,24,0.00,,,0.00,oem by Ross Wheeler,2013-03-30 18:55:00,
2013-03-30 15:00:00,57.6,21.0,30.05,SSW,209,2.0,0.0,24,0.00,,,0.00,oem by Ross Wheeler,2013-03-30 19:00:00,
2013-03-30 15:10:00,58.4,22.0,30.05,NNW,333,0.0,0.0,24,0.00,,,0.00,oem by Ross Wheeler,2013-03-30 19:10:00,
2013-03-30 15:15:00,58.5,22.0,30.05,NNW,343,2.0,0.0,24,0.00,,,0.00,oem by Ross Wheeler,2013-03-30 19:15:00,
2013-03-30 15:25:00,59.1,21.0,30.05,NNW,330,6.0,0.0,23,0.00,,,0.00,oem by Ross Wheeler,2013-03-30 19:25:00,
2013-03-30 15:30:00,58.8,22.0,30.05,NNW,336,2.0,0.0,24,0.00,,,0.00,oem by Ross Wheeler,2013-03-30 19:30:00,
2013-03-30 15:40:00,57.6,21.0,30.05,NNW,330,5.0,0.0,24,0.00,,,0.00,oem by Ross Wheeler,2013-03-30 19:40:00,
2013-03-30 15:45:00,57.3,21.0,30.04,NNW,336,0.0,0.0,24,0.00,,,0.00,oem by Ross Wheeler,2013-03-30 19:45:00,
2013-03-30 15:55:00,58.1,20.0,30.04,West,279,3.0,0.0,23,0.00,,,0.00,oem by Ross Wheeler,2013-03-30 19:55:00,
2013-03-30 16:00:00,58.7,21.0,30.04,West,261,3.0,0.0,23,0.00,,,0.00,oem by Ross Wheeler,2013-03-30 20:00:00,
2013-03-30 16:10:00,59.3,23.0,30.04,SW,234,7.0,0.0,25,0.00,,,0.00,oem by Ross Wheeler,2013-03-30 20:10:00,
2013-03-30 16:15:00,59.3,23.0,30.04,WSW,240,6.0,0.0,25,0.00,,,0.00,oem by Ross Wheeler,2013-03-30 20:15:00,
2013-03-30 16:25:00,58.4,23.0,30.04,West,278,6.0,0.0,25,0.00,,,0.00,oem by Ross Wheeler,2013-03-30 20:25:00,
2013-03-30 16:30:00,57.9,21.0,30.04,WSW,241,3.0,0.0,24,0.00,,,0.00,oem by Ross Wheeler,2013-03-30 20:30:00,
2013-03-30 16:40:00,56.8,21.0,30.04,SW,224,3.0,0.0,25,0.00,,,0.00,oem by Ross Wheeler,2013-03-30 20:40:00,
2013-03-30 16:45:00,57.2,22.0,30.04,WSW,255,2.0,0.0,26,0.00,,,0.00,oem by Ross Wheeler,2013-03-30 20:45:00,
2013-03-30 16:55:00,57.9,23.0,30.04,WSW,246,1.0,0.0,26,0.00,,,0.00,oem by Ross Wheeler,2013-03-30 20:55:00,
2013-03-30 17:00:00,58.1,22.0,30.04,West,270,4.0,0.0,25,0.00,,,0.00,oem by Ross Wheeler,2013-03-30 21:00:00,
2013-03-30 17:10:00,57.8,22.0,30.04,NNW,327,6.0,0.0,25,0.00,,,0.00,oem by Ross Wheeler,2013-03-30 21:10:00,
2013-03-30 17:15:00,56.8,21.0,30.03,WNW,289,3.0,0.0,25,0.00,,,0.00,oem by Ross Wheeler,2013-03-30 21:15:00,
2013-03-30 17:25:00,57.0,22.0,30.03,WNW,288,6.0,0.0,26,0.00,,,0.00,oem by Ross Wheeler,2013-03-30 21:25:00,
2013-03-30 17:30:00,57.2,22.0,30.03,West,265,3.0,0.0,26,0.00,,,0.00,oem by Ross Wheeler,2013-03-30 21:30:00,
2013-03-30 17:40:00,57.9,22.0,30.03,WNW,284,4.0,0.0,25,0.00,,,0.00,oem by Ross Wheeler,2013-03-30 21:40:00,
2013-03-30 17:45:00,57.9,21.0,30.03,West,264,4.0,0.0,24,0.00,,,0.00,oem by Ross Wheeler,2013-03-30 21:45:00,
2013-03-30 17:55:00,58.1,21.0,30.03,WSW,254,2.0,0.0,24,0.00,,,0.00,oem by Ross Wheeler,2013-03-30 21:55:00,
2013-03-30 18:00:00,57.9,21.0,30.03,West,275,6.0,0.0,24,0.00,,,0.00,oem by Ross Wheeler,2013-03-30 22:00:00,
2013-03-30 18:10:00,57.6,21.0,30.03,West,263,5.0,0.0,24,0.00,,,0.00,oem by Ross Wheeler,2013-03-30 22:10:00,
2013-03-30 18:15:00,57.3,20.0,30.04,NW,316,2.0,0.0,23,0.00,,,0.00,oem by Ross Wheeler,2013-03-30 22:15:00,
2013-03-30 18:25:00,56.8,21.0,30.04,SW,231,3.0,0.0,25,0.00,,,0.00,oem by Ross Wheeler,2013-03-30 22:25:00,
2013-03-30 18:30:00,56.7,21.0,30.04,SW,234,6.0,0.0,25,0.00,,,0.00,oem by Ross Wheeler,2013-03-30 22:30:00,
2013-03-30 18:40:00,56.1,21.0,30.04,SSW,213,1.0,0.0,25,0.00,,,0.00,oem by Ross Wheeler,2013-03-30 22:40:00,
2013-03-30 18:45:00,55.8,20.0,30.04,WSW,247,3.0,0.0,25,0.00,,,0.00,oem by Ross Wheeler,2013-03-30 22:45:00,
2013-03-30 18:55:00,55.4,22.0,30.04,SW,227,2.0,0.0,27,0.00,,,0.00,oem by Ross Wheeler,2013-03-30 22:55:00,
2013-03-30 19:00:00,55.1,21.0,30.04,SW,234,3.0,0.0,26,0.00,,,0.00,oem by Ross Wheeler,2013-03-30 23:00:00,
2013-03-30 19:10:00,54.6,21.0,30.04,WSW,246,0.0,0.0,27,0.00,,,0.00,oem by Ross Wheeler,2013-03-30 23:10:00,
2013-03-30 19:15:00,54.3,22.0,30.04,SSW,207,6.0,0.0,28,0.00,,,0.00,oem by Ross Wheeler,2013-03-30 23:15:00,
2013-03-30 19:25:00,54.2,19.0,30.04,West,260,0.0,0.0,25,0.00,,,0.00,oem by Ross Wheeler,2013-03-30 23:25:00,
2013-03-30 19:30:00,54.0,19.0,30.05,WNW,291,2.0,0.0,25,0.00,,,0.00,oem by Ross Wheeler,2013-03-30 23:30:00,
2013-03-30 19:40:00,53.6,19.0,30.05,WNW,285,1.0,0.0,26,0.00,,,0.00,oem by Ross Wheeler,2013-03-30 23:40:00,
2013-03-30 19:45:00,53.3,20.0,30.05,WNW,287,0.0,0.0,27,0.00,,,0.00,oem by Ross Wheeler,2013-03-30 23:45:00,
2013-03-30 19:55:00,52.4,19.0,30.05,WNW,287,0.0,0.0,27,0.00,,,0.00,oem by Ross Wheeler,2013-03-30 23:55:00,
2013-03-30 20:00:00,51.8,20.0,30.05,WNW,287,0.0,0.0,29,0.00,,,0.00,oem by Ross Wheeler,2013-03-31 00:00:00,
2013-03-30 20:10:00,50.5,21.0,30.05,WNW,287,2.0,0.0,31,0.00,,,0.00,oem by Ross Wheeler,2013-03-31 00:10:00,
2013-03-30 20:15:00,50.0,20.0,30.06,WNW,287,0.0,0.0,30,0.00,,,0.00,oem by Ross Wheeler,2013-03-31 00:15:00,
2013-03-30 20:25:00,49.7,19.0,30.06,West,264,0.0,0.0,30,0.00,,,0.00,oem by Ross Wheeler,2013-03-31 00:25:00,
2013-03-30 20:30:00,49.7,21.0,30.06,West,265,1.0,0.0,32,0.00,,,0.00,oem by Ross Wheeler,2013-03-31 00:30:00,
2013-03-30 20:40:00,50.3,19.0,30.06,WSW,258,0.0,0.0,29,0.00,,,0.00,oem by Ross Wheeler,2013-03-31 00:40:00,
2013-03-30 20:45:00,50.3,19.0,30.07,WSW,258,0.0,0.0,29,0.00,,,0.00,oem by Ross Wheeler,2013-03-31 00:45:00,
2013-03-30 20:55:00,49.9,21.0,30.07,West,272,0.0,0.0,32,0.00,,,0.00,oem by Ross Wheeler,2013-03-31 00:55:00,
2013-03-30 21:00:00,49.4,23.0,30.07,West,272,0.0,0.0,35,0.00,,,0.00,oem by Ross Wheeler,2013-03-31 01:00:00,
2013-03-30 21:10:00,48.4,25.0,30.07,West,272,0.0,0.0,40,0.00,,,0.00,oem by Ross Wheeler,2013-03-31 01:10:00,
2013-03-30 21:15:00,47.8,25.0,30.07,West,272,0.0,0.0,41,0.00,,,0.00,oem by Ross Wheeler,2013-03-31 01:15:00,
2013-03-30 21:25:00,46.9,25.0,30.07,West,272,0.0,0.0,43,0.00,,,0.00,oem by Ross Wheeler,2013-03-31 01:25:00,
2013-03-30 21:30:00,46.5,26.0,30.08,West,272,0.0,0.0,45,0.00,,,0.00,oem by Ross Wheeler,2013-03-31 01:30:00,
2013-03-30 21:40:00,45.4,27.0,30.08,West,272,0.0,0.0,48,0.00,,,0.00,oem by Ross Wheeler,2013-03-31 01:40:00,
2013-03-30 21:45:00,44.9,27.0,30.08,West,272,0.0,0.0,49,0.00,,,0.00,oem by Ross Wheeler,2013-03-31 01:45:00,
2013-03-30 21:55:00,44.0,27.0,30.08,West,272,0.0,0.0,51,0.00,,,0.00,oem by Ross Wheeler,2013-03-31 01:55:00,
2013-03-30 22:00:00,43.5,26.0,30.08,West,272,0.0,0.0,51,0.00,,,0.00,oem by Ross Wheeler,2013-03-31 02:00:00,
2013-03-30 22:10:00,42.8,27.0,30.08,West,272,0.0,0.0,53,0.00,,,0.00,oem by Ross Wheeler,2013-03-31 02:10:00,
2013-03-30 22:15:00,42.5,27.0,30.08,West,272,0.0,0.0,54,0.00,,,0.00,oem by Ross Wheeler,2013-03-31 02:15:00,
2013-03-30 22:25:00,42.0,27.0,30.08,West,272,0.0,0.0,56,0.00,,,0.00,oem by Ross Wheeler,2013-03-31 02:25:00,
2013-03-30 22:31:00,41.7,27.0,30.09,West,272,0.0,0.0,57,0.00,,,0.00,oem by Ross Wheeler,2013-03-31 02:31:00,
2013-03-30 22:40:00,41.3,28.0,30.09,West,272,0.0,0.0,59,0.00,,,0.00,oem by Ross Wheeler,2013-03-31 02:40:00,
2013-03-30 22:45:00,41.0,28.0,30.09,West,272,0.0,0.0,60,0.00,,,0.00,oem by Ross Wheeler,2013-03-31 02:45:00,
2013-03-30 22:55:00,40.7,28.0,30.09,West,272,0.0,0.0,60,0.00,,,0.00,oem by Ross Wheeler,2013-03-31 02:55:00,
2013-03-30 23:00:00,40.5,28.0,30.09,West,272,0.0,0.0,61,0.00,,,0.00,oem by Ross Wheeler,2013-03-31 03:00:00,
2013-03-30 23:10:00,40.3,28.0,30.09,West,272,0.0,0.0,62,0.00,,,0.00,oem by Ross Wheeler,2013-03-31 03:10:00,
2013-03-30 23:15:00,40.1,28.0,30.09,West,272,0.0,0.0,62,0.00,,,0.00,oem by Ross Wheeler,2013-03-31 03:15:00,
2013-03-30 23:25:00,40.0,27.0,30.09,West,272,0.0,0.0,61,0.00,,,0.00,oem by Ross Wheeler,2013-03-31 03:25:00,
2013-03-30 23:30:00,39.8,28.0,30.09,West,272,0.0,0.0,62,0.00,,,0.00,oem by Ross Wheeler,2013-03-31 03:30:00,
2013-03-30 23:40:00,39.7,27.0,30.09,West,272,0.0,0.0,62,0.00,,,0.00,oem by Ross Wheeler,2013-03-31 03:40:00,
2013-03-30 23:45:00,39.5,27.0,30.09,West,272,0.0,0.0,62,0.00,,,0.00,oem by Ross Wheeler,2013-03-31 03:45:00,
2013-03-30 23:55:00,39.4,28.0,30.09,West,272,0.0,0.0,63,0.00,,,0.00,oem by Ross Wheeler,2013-03-31 03:55:00,